createdAt,value
2022-11-17T00:00:45.479Z,8.94
2022-11-17T00:03:18.895Z,8.93
2022-11-17T00:05:48.484Z,8.94
2022-11-17T00:08:18.213Z,8.94
2022-11-17T00:10:47.941Z,8.94
2022-11-17T00:13:29.998Z,8.92
2022-11-17T00:15:59.848Z,8.92
2022-11-17T00:18:44.440Z,8.93
2022-11-17T00:21:26.962Z,8.92
2022-11-17T00:23:56.793Z,8.91
2022-11-17T00:26:27.600Z,8.92
2022-11-17T00:28:58.462Z,8.92
2022-11-17T00:31:42.458Z,8.92
2022-11-17T00:34:17.503Z,8.92
2022-11-17T00:36:48.507Z,8.93
2022-11-17T00:39:19.066Z,8.95
2022-11-17T00:41:48.836Z,8.96
2022-11-17T00:44:18.950Z,8.97
2022-11-17T00:46:48.749Z,8.97
2022-11-17T00:49:25.082Z,8.97
2022-11-17T00:51:55.085Z,8.96
2022-11-17T00:54:24.878Z,8.95
2022-11-17T00:56:54.732Z,8.94
2022-11-17T00:59:24.332Z,8.92
2022-11-17T01:01:53.962Z,8.91
2022-11-17T01:04:26.309Z,8.90
2022-11-17T01:06:56.117Z,8.90
2022-11-17T01:09:26.898Z,8.88
2022-11-17T01:11:56.467Z,8.88
2022-11-17T01:14:27.702Z,8.88
2022-11-17T01:16:57.856Z,8.88
2022-11-17T01:19:30.013Z,8.87
2022-11-17T01:21:59.582Z,8.87
2022-11-17T01:24:29.334Z,8.86
2022-11-17T01:26:58.919Z,8.85
2022-11-17T01:29:28.499Z,8.84
2022-11-17T01:31:58.091Z,8.83
2022-11-17T01:34:30.409Z,8.81
2022-11-17T01:37:12.458Z,8.80
2022-11-17T01:39:42.444Z,8.79
2022-11-17T01:42:16.776Z,8.79
2022-11-17T01:45:01.146Z,8.78
2022-11-17T01:47:39.108Z,8.78
2022-11-17T01:50:23.332Z,8.77
2022-11-17T01:52:54.419Z,8.75
2022-11-17T01:55:25.471Z,8.75
2022-11-17T01:57:58.396Z,8.74
2022-11-17T02:00:28.259Z,8.73
2022-11-17T02:02:58.174Z,8.72
2022-11-17T02:05:38.039Z,8.71
2022-11-17T02:08:09.626Z,8.72
2022-11-17T02:10:39.528Z,8.69
2022-11-17T02:13:10.223Z,8.70
2022-11-17T02:15:39.778Z,8.70
2022-11-17T02:18:09.557Z,8.70
2022-11-17T02:20:53.322Z,8.70
2022-11-17T02:23:46.694Z,8.70
2022-11-17T02:26:57.813Z,8.72
2022-11-17T02:29:34.458Z,8.72
2022-11-17T02:32:08.238Z,8.70
2022-11-17T02:34:41.472Z,8.72
2022-11-17T02:37:14.443Z,8.72
2022-11-17T02:39:49.861Z,8.72
2022-11-17T02:42:44.398Z,8.73
2022-11-17T02:45:17.681Z,8.73
2022-11-17T02:47:50.252Z,8.73
2022-11-17T02:50:26.788Z,8.73
2022-11-17T02:52:57.741Z,8.74
2022-11-17T02:55:33.191Z,8.73
2022-11-17T02:58:03.208Z,8.73
2022-11-17T03:00:37.424Z,8.72
2022-11-17T03:03:19.521Z,8.73
2022-11-17T03:06:00.216Z,8.73
2022-11-17T03:08:33.844Z,8.73
2022-11-17T03:11:05.354Z,8.74
2022-11-17T03:13:44.973Z,8.73
2022-11-17T03:16:25.352Z,8.73
2022-11-17T03:19:04.082Z,8.74
2022-11-17T03:21:38.077Z,8.73
2022-11-17T03:24:14.044Z,8.75
2022-11-17T03:26:48.821Z,8.74
2022-11-17T03:29:20.513Z,8.76
2022-11-17T03:31:56.339Z,8.75
2022-11-17T03:34:27.659Z,8.75
2022-11-17T03:37:03.622Z,8.76
2022-11-17T03:39:35.333Z,8.75
2022-11-17T03:42:08.346Z,8.77
2022-11-17T03:44:41.102Z,8.77
2022-11-17T03:47:15.765Z,8.78
2022-11-17T03:49:49.383Z,8.78
2022-11-17T03:52:19.223Z,8.77
2022-11-17T03:54:48.797Z,8.75
2022-11-17T03:57:23.054Z,8.79
2022-11-17T03:59:56.887Z,8.84
2022-11-17T04:02:29.568Z,8.86
2022-11-17T04:05:11.139Z,8.87
2022-11-17T04:07:42.847Z,8.86
2022-11-17T04:10:13.854Z,8.84
2022-11-17T04:12:56.089Z,8.83
2022-11-17T04:15:47.270Z,8.79
2022-11-17T04:18:19.423Z,8.79
2022-11-17T04:20:52.085Z,8.75
2022-11-17T04:23:22.224Z,8.74
2022-11-17T04:26:05.871Z,8.74
2022-11-17T04:28:39.713Z,8.78
2022-11-17T04:31:12.162Z,8.80
2022-11-17T04:33:47.996Z,8.84
2022-11-17T04:36:21.122Z,8.92
2022-11-17T04:38:52.461Z,8.96
2022-11-17T04:41:38.169Z,8.95
2022-11-17T04:44:09.233Z,8.91
2022-11-17T04:46:39.679Z,8.86
2022-11-17T04:49:12.158Z,8.80
2022-11-17T04:51:43.544Z,8.77
2022-11-17T04:54:15.509Z,8.76
2022-11-17T04:56:45.562Z,8.78
2022-11-17T04:59:15.554Z,8.78
2022-11-17T05:01:45.805Z,8.75
2022-11-17T05:04:42.956Z,8.77
2022-11-17T05:07:12.973Z,8.79
2022-11-17T05:09:42.833Z,8.87
2022-11-17T05:12:25.099Z,8.95
2022-11-17T05:14:54.641Z,9.08
2022-11-17T05:17:21.643Z,9.16
2022-11-17T05:19:53.786Z,9.21
2022-11-17T05:22:39.062Z,9.32
2022-11-17T05:25:09.589Z,9.42
2022-11-17T05:27:39.448Z,9.40
2022-11-17T05:30:11.475Z,9.31
2022-11-17T05:32:41.112Z,9.25
2022-11-17T05:35:13.480Z,9.19
2022-11-17T05:37:43.083Z,9.16
2022-11-17T05:40:13.643Z,9.13
2022-11-17T05:42:43.218Z,9.11
2022-11-17T05:45:13.204Z,9.09
2022-11-17T05:47:42.797Z,9.08
2022-11-17T05:50:19.254Z,9.08
2022-11-17T05:52:49.127Z,9.05
2022-11-17T05:55:18.852Z,9.04
2022-11-17T05:57:48.751Z,9.04
2022-11-17T06:00:19.219Z,9.03
2022-11-17T06:02:51.376Z,9.01
2022-11-17T06:05:24.033Z,9.01
2022-11-17T06:07:54.868Z,8.99
2022-11-17T06:10:24.444Z,9.00
2022-11-17T06:12:54.315Z,9.00
2022-11-17T06:15:23.996Z,9.01
2022-11-17T06:17:57.338Z,9.02
2022-11-17T06:20:31.787Z,9.03
2022-11-17T06:23:04.157Z,9.04
2022-11-17T06:25:35.268Z,9.04
2022-11-17T06:28:05.530Z,9.04
2022-11-17T06:30:35.316Z,9.05
2022-11-17T06:33:05.419Z,9.07
2022-11-17T06:35:38.051Z,9.07
2022-11-17T06:38:07.804Z,9.08
2022-11-17T06:40:37.347Z,9.08
2022-11-17T06:43:08.654Z,9.10
2022-11-17T06:45:39.011Z,9.10
2022-11-17T06:48:09.654Z,9.13
2022-11-17T06:50:41.949Z,9.13
2022-11-17T06:53:13.733Z,9.12
2022-11-17T06:55:43.383Z,9.11
2022-11-17T06:58:14.297Z,9.10
2022-11-17T07:00:44.163Z,9.09
2022-11-17T07:03:13.763Z,9.09
2022-11-17T07:05:46.529Z,9.09
2022-11-17T07:08:16.240Z,9.11
2022-11-17T07:10:49.320Z,9.12
2022-11-17T07:13:19.159Z,9.12
2022-11-17T07:15:49.585Z,9.15
2022-11-17T07:18:20.432Z,9.15
2022-11-17T07:20:52.695Z,9.18
2022-11-17T07:23:22.292Z,9.20
2022-11-17T07:25:54.864Z,9.23
2022-11-17T07:28:24.433Z,9.25
2022-11-17T07:30:53.986Z,9.27
2022-11-17T07:33:23.758Z,9.29
2022-11-17T07:35:56.055Z,9.33
2022-11-17T07:38:25.610Z,9.35
2022-11-17T07:40:55.150Z,9.36
2022-11-17T07:43:24.931Z,9.39
2022-11-17T07:45:54.478Z,9.41
2022-11-17T07:48:24.214Z,9.41
2022-11-17T07:50:56.699Z,9.40
2022-11-17T07:53:26.258Z,9.40
2022-11-17T07:55:56.112Z,9.40
2022-11-17T07:58:25.977Z,9.42
2022-11-17T08:00:55.596Z,9.43
2022-11-17T08:03:25.171Z,9.45
2022-11-17T08:05:57.785Z,9.48
2022-11-17T08:08:27.351Z,9.52
2022-11-17T08:10:56.966Z,9.54
2022-11-17T08:13:26.551Z,9.58
2022-11-17T08:15:59.019Z,9.62
2022-11-17T08:18:28.784Z,9.63
2022-11-17T08:21:06.508Z,9.67
2022-11-17T08:23:36.389Z,9.70
2022-11-17T08:26:07.262Z,9.74
2022-11-17T08:28:37.300Z,9.78
2022-11-17T08:31:08.788Z,9.79
2022-11-17T08:33:38.666Z,9.84
2022-11-17T08:36:11.226Z,9.87
2022-11-17T08:38:40.909Z,9.90
2022-11-17T08:41:11.381Z,9.95
2022-11-17T08:43:40.994Z,9.97
2022-11-17T08:46:13.974Z,10.02
2022-11-17T08:48:43.570Z,10.07
2022-11-17T08:51:17.458Z,10.10
2022-11-17T08:53:47.150Z,10.12
2022-11-17T08:56:16.756Z,10.16
2022-11-17T08:58:47.559Z,10.19
2022-11-17T09:01:18.803Z,10.27
2022-11-17T09:03:49.837Z,10.33
2022-11-17T09:06:22.646Z,10.38
2022-11-17T09:08:52.240Z,10.45
2022-11-17T09:11:21.944Z,10.52
2022-11-17T09:13:51.708Z,10.62
2022-11-17T09:16:23.954Z,10.72
2022-11-17T09:18:58.472Z,10.75
2022-11-17T09:21:30.660Z,10.81
2022-11-17T09:24:00.224Z,10.83
2022-11-17T09:26:29.776Z,10.87
2022-11-17T09:29:03.027Z,10.85
2022-11-17T09:31:32.966Z,10.86
2022-11-17T09:34:05.535Z,10.90
2022-11-17T09:36:38.049Z,10.93
2022-11-17T09:39:07.788Z,10.99
2022-11-17T09:41:43.615Z,11.03
2022-11-17T09:44:25.559Z,11.01
2022-11-17T09:47:00.455Z,11.06
2022-11-17T09:49:58.784Z,11.24
2022-11-17T09:52:35.905Z,11.47
2022-11-17T09:55:07.494Z,11.58
2022-11-17T09:57:40.864Z,11.65
2022-11-17T10:00:16.592Z,11.62
2022-11-17T10:02:46.427Z,11.57
2022-11-17T10:05:18.090Z,11.52
2022-11-17T10:07:53.740Z,11.49
2022-11-17T10:10:28.038Z,11.44
2022-11-17T10:13:00.387Z,11.42
2022-11-17T10:15:32.830Z,11.40
2022-11-17T10:18:02.400Z,11.40
2022-11-17T10:20:32.230Z,11.39
2022-11-17T10:23:05.831Z,11.40
2022-11-17T10:25:40.383Z,11.44
2022-11-17T10:28:11.309Z,11.48
2022-11-17T10:30:40.960Z,11.52
2022-11-17T10:33:15.566Z,11.55
2022-11-17T10:35:56.812Z,11.58
2022-11-17T10:38:33.613Z,11.62
2022-11-17T10:41:05.746Z,11.65
2022-11-17T10:43:36.590Z,11.67
2022-11-17T10:46:08.802Z,11.70
2022-11-17T10:48:39.946Z,11.69
2022-11-17T10:51:24.365Z,11.69
2022-11-17T10:54:08.057Z,11.67
2022-11-17T10:56:42.590Z,11.69
2022-11-17T10:59:17.010Z,11.77
2022-11-17T11:01:48.794Z,11.80
2022-11-17T11:04:33.272Z,11.83
2022-11-17T11:07:08.975Z,11.84
2022-11-17T11:09:44.966Z,11.85
2022-11-17T11:12:17.552Z,11.90
2022-11-17T11:14:51.384Z,11.87
2022-11-17T11:17:21.241Z,11.83
2022-11-17T11:19:54.773Z,11.78
2022-11-17T11:22:37.997Z,11.76
2022-11-17T11:25:27.695Z,11.77
2022-11-17T11:28:11.943Z,11.77
2022-11-17T11:30:45.447Z,11.80
2022-11-17T11:33:26.591Z,11.85
2022-11-17T11:36:23.536Z,11.87
2022-11-17T11:39:01.590Z,11.85
2022-11-17T11:41:45.943Z,11.85
2022-11-17T11:44:19.281Z,11.86
2022-11-17T11:46:55.280Z,11.88
2022-11-17T11:49:32.592Z,11.92
2022-11-17T11:52:02.818Z,12.00
2022-11-17T11:54:40.113Z,12.07
2022-11-17T11:57:14.584Z,12.16
2022-11-17T11:59:50.157Z,12.23
2022-11-17T12:02:27.643Z,12.26
2022-11-17T12:05:03.241Z,12.29
2022-11-17T12:07:39.146Z,12.33
2022-11-17T12:10:14.034Z,12.36
2022-11-17T12:12:48.480Z,12.39
2022-11-17T12:15:33.863Z,12.44
2022-11-17T12:18:06.723Z,12.44
2022-11-17T12:20:57.997Z,12.40
2022-11-17T12:23:52.359Z,12.32
2022-11-17T12:26:27.586Z,12.28
2022-11-17T12:29:31.737Z,12.27
2022-11-17T12:32:03.443Z,12.27
2022-11-17T12:34:35.843Z,12.28
2022-11-17T12:37:26.475Z,12.28
2022-11-17T12:40:01.988Z,12.28
2022-11-17T12:42:32.460Z,12.26
2022-11-17T12:45:06.415Z,12.26
2022-11-17T12:47:37.729Z,12.25
2022-11-17T12:50:29.609Z,12.25
2022-11-17T12:53:12.307Z,12.24
2022-11-17T12:55:54.208Z,12.27
2022-11-17T12:58:30.442Z,12.34
2022-11-17T13:01:10.696Z,12.41
2022-11-17T13:03:46.792Z,12.43
2022-11-17T13:06:36.001Z,12.41
2022-11-17T13:09:08.905Z,12.34
2022-11-17T13:11:38.745Z,12.32
2022-11-17T13:14:13.242Z,12.32
2022-11-17T13:16:49.573Z,12.33
2022-11-17T13:19:33.960Z,12.35
2022-11-17T13:22:03.808Z,12.36
2022-11-17T13:24:35.864Z,12.34
2022-11-17T13:27:07.438Z,12.32
2022-11-17T13:29:37.916Z,12.28
2022-11-17T13:32:20.267Z,12.26
2022-11-17T13:34:56.497Z,12.25
2022-11-17T13:37:27.452Z,12.24
2022-11-17T13:40:04.192Z,12.21
2022-11-17T13:42:35.295Z,12.20
2022-11-17T13:45:06.266Z,12.15
2022-11-17T13:47:49.714Z,12.14
2022-11-17T13:50:40.685Z,12.14
2022-11-17T13:53:26.222Z,12.14
2022-11-17T13:55:56.062Z,12.13
2022-11-17T13:58:31.516Z,12.12
2022-11-17T14:01:01.928Z,12.12
2022-11-17T14:03:38.756Z,12.12
2022-11-17T14:06:09.597Z,12.13
2022-11-17T14:08:40.563Z,12.15
2022-11-17T14:11:21.352Z,12.18
2022-11-17T14:13:53.948Z,12.20
2022-11-17T14:16:27.351Z,12.20
2022-11-17T14:19:07.644Z,12.21
2022-11-17T14:21:37.518Z,12.21
2022-11-17T14:24:12.813Z,12.22
2022-11-17T14:26:47.047Z,12.22
2022-11-17T14:29:16.627Z,12.21
2022-11-17T14:31:46.249Z,12.19
2022-11-17T14:34:18.512Z,12.17
2022-11-17T14:36:49.607Z,12.13
2022-11-17T14:39:20.489Z,12.10
2022-11-17T14:41:51.638Z,12.05
2022-11-17T14:44:21.915Z,11.99
2022-11-17T14:46:51.536Z,11.94
2022-11-17T14:49:23.709Z,11.93
2022-11-17T14:51:55.408Z,11.89
2022-11-17T14:54:25.157Z,11.86
2022-11-17T14:56:54.701Z,11.84
2022-11-17T14:59:24.273Z,11.83
2022-11-17T15:01:54.100Z,11.80
2022-11-17T15:04:49.524Z,11.78
2022-11-17T15:07:15.822Z,11.76
2022-11-17T15:09:45.389Z,11.76
2022-11-17T15:12:14.938Z,11.75
2022-11-17T15:14:44.497Z,11.74
2022-11-17T15:17:14.755Z,11.73
2022-11-17T15:19:47.157Z,11.73
2022-11-17T15:22:16.950Z,11.71
2022-11-17T15:24:46.848Z,11.67
2022-11-17T15:27:17.111Z,11.66
2022-11-17T15:29:46.652Z,11.65
2022-11-17T15:32:16.218Z,11.65
2022-11-17T15:34:48.322Z,11.65
2022-11-17T15:37:17.891Z,11.64
2022-11-17T15:39:47.459Z,11.63
2022-11-17T15:42:17.043Z,11.61
2022-11-17T15:44:46.572Z,11.62
2022-11-17T15:47:16.124Z,11.64
2022-11-17T15:49:48.623Z,11.64
2022-11-17T15:52:30.080Z,11.65
2022-11-17T15:55:08.649Z,11.66
2022-11-17T15:57:38.174Z,11.65
2022-11-17T16:00:09.214Z,11.61
2022-11-17T16:02:38.796Z,11.60
2022-11-17T16:05:11.616Z,11.57
2022-11-17T16:07:41.245Z,11.57
2022-11-17T16:10:11.623Z,11.56
2022-11-17T16:12:41.159Z,11.52
2022-11-17T16:15:12.129Z,11.47
2022-11-17T16:17:41.666Z,11.45
2022-11-17T16:20:14.707Z,11.43
2022-11-17T16:22:44.314Z,11.41
2022-11-17T16:25:13.848Z,11.41
2022-11-17T16:27:43.409Z,11.40
2022-11-17T16:30:14.872Z,11.39
2022-11-17T16:32:44.427Z,11.38
2022-11-17T16:35:16.774Z,11.37
2022-11-17T16:37:46.325Z,11.34
2022-11-17T16:40:15.882Z,11.33
2022-11-17T16:42:45.421Z,11.32
2022-11-17T16:45:14.994Z,11.32
2022-11-17T16:47:44.547Z,11.30
2022-11-17T16:50:16.664Z,11.30
2022-11-17T16:52:46.397Z,11.28
2022-11-17T16:55:15.921Z,11.26
2022-11-17T16:57:45.591Z,11.25
2022-11-17T17:00:17.876Z,11.24
2022-11-17T17:02:51.661Z,11.22
2022-11-17T17:05:23.844Z,11.21
2022-11-17T17:07:53.668Z,11.21
2022-11-17T17:10:23.299Z,11.18
2022-11-17T17:12:52.844Z,11.18
2022-11-17T17:15:22.417Z,11.13
2022-11-17T17:17:51.952Z,11.09
2022-11-17T17:20:24.075Z,10.96
2022-11-17T17:22:53.613Z,10.81
2022-11-17T17:25:23.114Z,10.65
2022-11-17T17:27:52.694Z,10.52
2022-11-17T17:30:22.470Z,10.40
2022-11-17T17:32:52.014Z,10.26
2022-11-17T17:35:24.475Z,10.13
2022-11-17T17:37:54.215Z,10.01
2022-11-17T17:40:23.828Z,9.91
2022-11-17T17:42:53.442Z,9.80
2022-11-17T17:45:23.083Z,9.72
2022-11-17T17:47:52.689Z,9.66
2022-11-17T17:50:24.817Z,9.63
2022-11-17T17:52:54.321Z,9.60
2022-11-17T17:55:23.821Z,9.58
2022-11-17T17:57:53.352Z,9.55
2022-11-17T18:00:23.477Z,9.53
2022-11-17T18:02:53.051Z,9.50
2022-11-17T18:05:25.787Z,9.45
2022-11-17T18:07:55.395Z,9.40
2022-11-17T18:10:25.163Z,9.34
2022-11-17T18:12:55.197Z,9.26
2022-11-17T18:15:25.033Z,9.19
2022-11-17T18:17:55.030Z,9.16
2022-11-17T18:20:27.411Z,9.14
2022-11-17T18:22:57.243Z,9.13
2022-11-17T18:25:27.168Z,9.12
2022-11-17T18:27:57.178Z,9.10
2022-11-17T18:30:27.207Z,9.05
2022-11-17T18:33:02.819Z,9.01
2022-11-17T18:35:35.437Z,8.93
2022-11-17T18:38:05.407Z,8.87
2022-11-17T18:40:35.188Z,8.81
2022-11-17T18:43:04.930Z,8.73
2022-11-17T18:45:34.496Z,8.68
2022-11-17T18:48:04.347Z,8.63
2022-11-17T18:50:52.029Z,8.64
2022-11-17T18:53:26.150Z,8.71
2022-11-17T18:55:55.715Z,8.78
2022-11-17T18:58:25.375Z,8.85
2022-11-17T19:00:54.951Z,8.91
2022-11-17T19:03:24.562Z,8.93
2022-11-17T19:05:56.707Z,8.94
2022-11-17T19:08:26.380Z,8.92
2022-11-17T19:10:56.419Z,8.88
2022-11-17T19:13:26.156Z,8.84
2022-11-17T19:15:55.931Z,8.80
2022-11-17T19:18:25.519Z,8.76
2022-11-17T19:21:05.638Z,8.71
2022-11-17T19:23:36.443Z,8.66
2022-11-17T19:26:07.326Z,8.61
2022-11-17T19:28:37.705Z,8.57
2022-11-17T19:31:09.190Z,8.53
2022-11-17T19:33:40.533Z,8.51
2022-11-17T19:36:14.452Z,8.48
2022-11-17T19:38:45.584Z,8.49
2022-11-17T19:41:17.599Z,8.48
2022-11-17T19:43:47.227Z,8.48
2022-11-17T19:46:18.458Z,8.48
2022-11-17T19:48:48.194Z,8.50
2022-11-17T19:51:22.463Z,8.49
2022-11-17T19:53:53.925Z,8.48
2022-11-17T19:56:24.233Z,8.47
2022-11-17T19:58:54.091Z,8.46
2022-11-17T20:01:25.363Z,8.48
2022-11-17T20:03:55.511Z,8.50
2022-11-17T20:06:29.782Z,8.50
2022-11-17T20:09:00.096Z,8.51
2022-11-17T20:11:30.795Z,8.52
2022-11-17T20:14:00.334Z,8.53
2022-11-17T20:16:30.365Z,8.55
2022-11-17T20:19:01.292Z,8.58
2022-11-17T20:21:34.837Z,8.61
2022-11-17T20:24:04.617Z,8.64
2022-11-17T20:26:36.161Z,8.66
2022-11-17T20:29:05.779Z,8.68
2022-11-17T20:31:37.466Z,8.70
2022-11-17T20:34:08.271Z,8.69
2022-11-17T20:36:40.408Z,8.69
2022-11-17T20:39:11.188Z,8.69
2022-11-17T20:41:40.785Z,8.70
2022-11-17T20:44:23.797Z,8.69
2022-11-17T20:46:54.927Z,8.69
2022-11-17T20:49:24.644Z,8.66
2022-11-17T20:51:56.858Z,8.66
2022-11-17T20:54:26.436Z,8.63
2022-11-17T20:56:56.104Z,8.58
2022-11-17T20:59:26.346Z,8.53
2022-11-17T21:01:56.459Z,8.48
2022-11-17T21:04:26.003Z,8.40
2022-11-17T21:06:59.530Z,8.33
2022-11-17T21:09:29.385Z,8.25
2022-11-17T21:11:59.090Z,8.21
2022-11-17T21:14:30.655Z,8.17
2022-11-17T21:17:00.774Z,8.11
2022-11-17T21:19:32.332Z,8.03
2022-11-17T21:22:06.383Z,8.00
2022-11-17T21:24:35.923Z,7.97
2022-11-17T21:27:05.453Z,7.98
2022-11-17T21:29:35.002Z,8.00
2022-11-17T21:32:04.618Z,8.06
2022-11-17T21:34:34.163Z,8.11
2022-11-17T21:37:06.370Z,8.20
2022-11-17T21:39:35.913Z,8.26
2022-11-17T21:42:05.494Z,8.32
2022-11-17T21:44:35.048Z,8.35
2022-11-17T21:47:04.589Z,8.38
2022-11-17T21:49:34.154Z,8.41
2022-11-17T21:52:06.417Z,8.43
2022-11-17T21:54:35.983Z,8.41
2022-11-17T21:57:05.702Z,8.37
2022-11-17T21:59:35.269Z,8.33
2022-11-17T22:02:04.861Z,8.29
2022-11-17T22:04:34.415Z,8.31
2022-11-17T22:07:06.753Z,8.36
2022-11-17T22:09:36.884Z,8.46
2022-11-17T22:12:06.890Z,8.53
2022-11-17T22:14:36.509Z,8.56
2022-11-17T22:17:06.101Z,8.52
2022-11-17T22:19:35.657Z,8.46
2022-11-17T22:22:08.176Z,8.37
2022-11-17T22:24:39.604Z,8.27
2022-11-17T22:27:09.532Z,8.20
2022-11-17T22:29:39.110Z,8.13
2022-11-17T22:32:09.037Z,8.08
2022-11-17T22:34:38.579Z,8.04
2022-11-17T22:37:10.813Z,8.01
2022-11-17T22:39:41.039Z,7.99
2022-11-17T22:42:10.856Z,7.96
2022-11-17T22:44:40.544Z,7.96
2022-11-17T22:47:10.101Z,8.00
2022-11-17T22:49:39.680Z,8.07
2022-11-17T22:52:14.167Z,8.16
2022-11-17T22:54:44.448Z,8.25
2022-11-17T22:57:14.055Z,8.34
2022-11-17T22:59:43.657Z,8.39
2022-11-17T23:02:13.235Z,8.47
2022-11-17T23:04:42.802Z,8.53
2022-11-17T23:07:16.187Z,8.59
2022-11-17T23:09:45.859Z,8.64
2022-11-17T23:12:15.430Z,8.69
2022-11-17T23:14:45.012Z,8.73
2022-11-17T23:17:14.642Z,8.76
2022-11-17T23:19:44.173Z,8.78
2022-11-17T23:22:17.636Z,8.81
2022-11-17T23:24:47.243Z,8.83
2022-11-17T23:27:16.809Z,8.85
2022-11-17T23:29:46.383Z,8.87
2022-11-17T23:32:15.954Z,8.87
2022-11-17T23:34:45.540Z,8.87
2022-11-17T23:37:17.773Z,8.88
2022-11-17T23:39:47.316Z,8.89
2022-11-17T23:42:16.865Z,8.90
2022-11-17T23:44:46.400Z,8.90
2022-11-17T23:47:15.958Z,8.90
2022-11-17T23:49:45.744Z,8.91
2022-11-17T23:52:17.954Z,8.92
2022-11-17T23:54:47.509Z,8.92
2022-11-17T23:57:17.142Z,8.93
2022-11-17T23:59:46.726Z,8.92
